createdAt,value
2018-06-10T00:01:13.807Z,18.28
2018-06-10T00:03:43.012Z,18.29
2018-06-10T00:06:12.311Z,18.35
2018-06-10T00:08:41.874Z,18.19
2018-06-10T00:11:11.034Z,18.12
2018-06-10T00:13:40.211Z,18.05
2018-06-10T00:16:09.366Z,18.15
2018-06-10T00:18:38.519Z,18.13
2018-06-10T00:21:07.706Z,18.23
2018-06-10T00:23:36.875Z,18.30
2018-06-10T00:26:06.155Z,18.40
2018-06-10T00:28:40.511Z,18.40
2018-06-10T00:31:09.698Z,18.44
2018-06-10T00:33:38.851Z,18.48
2018-06-10T00:36:08.053Z,18.47
2018-06-10T00:38:37.215Z,18.39
2018-06-10T00:41:06.609Z,18.23
2018-06-10T00:43:35.768Z,18.26
2018-06-10T00:46:04.958Z,18.22
2018-06-10T00:48:34.118Z,18.26
2018-06-10T00:51:03.539Z,18.32
2018-06-10T00:53:32.705Z,18.34
2018-06-10T00:56:12.238Z,18.33
2018-06-10T00:58:41.379Z,18.30
2018-06-10T01:01:10.566Z,18.37
2018-06-10T01:03:39.711Z,18.33
2018-06-10T01:06:08.887Z,18.31
2018-06-10T01:08:38.041Z,18.41
2018-06-10T01:11:07.360Z,18.32
2018-06-10T01:13:36.550Z,18.39
2018-06-10T01:16:05.743Z,18.33
2018-06-10T01:18:34.915Z,18.33
2018-06-10T01:21:04.094Z,18.33
2018-06-10T01:23:33.259Z,18.33
2018-06-10T01:26:02.438Z,18.29
2018-06-10T01:28:31.614Z,18.34
2018-06-10T01:31:00.786Z,18.29
2018-06-10T01:33:29.959Z,18.23
2018-06-10T01:35:59.147Z,18.31
2018-06-10T01:38:28.319Z,18.25
2018-06-10T01:40:57.490Z,18.26
2018-06-10T01:43:26.641Z,18.19
2018-06-10T01:45:56.207Z,18.19
2018-06-10T01:48:25.360Z,18.13
2018-06-10T01:50:54.538Z,17.96
2018-06-10T01:53:23.715Z,17.85
2018-06-10T01:55:52.891Z,17.86
2018-06-10T01:58:22.056Z,17.90
2018-06-10T02:00:51.247Z,17.90
2018-06-10T02:03:20.407Z,17.90
2018-06-10T02:05:49.577Z,17.80
2018-06-10T02:08:18.747Z,17.76
2018-06-10T02:10:47.915Z,17.71
2018-06-10T02:13:17.219Z,17.70
2018-06-10T02:15:47.107Z,17.53
2018-06-10T02:18:16.294Z,17.52
2018-06-10T02:20:45.442Z,17.51
2018-06-10T02:23:14.649Z,17.48
2018-06-10T02:25:43.806Z,17.43
2018-06-10T02:28:13.206Z,17.40
2018-06-10T02:30:42.379Z,17.29
2018-06-10T02:33:11.567Z,17.24
2018-06-10T02:35:40.722Z,17.22
2018-06-10T02:38:09.914Z,17.25
2018-06-10T02:40:39.386Z,17.23
2018-06-10T02:43:08.570Z,17.19
2018-06-10T02:45:38.451Z,17.13
2018-06-10T02:48:07.846Z,17.10
2018-06-10T02:50:37.419Z,17.13
2018-06-10T02:53:06.639Z,17.15
2018-06-10T02:55:35.802Z,17.16
2018-06-10T02:58:04.991Z,17.18
2018-06-10T03:00:34.363Z,17.26
2018-06-10T03:03:03.894Z,17.22
2018-06-10T03:05:33.047Z,17.22
2018-06-10T03:08:02.255Z,17.24
2018-06-10T03:10:31.430Z,17.26
2018-06-10T03:13:01.231Z,17.22
2018-06-10T03:15:30.375Z,17.18
2018-06-10T03:17:59.567Z,17.15
2018-06-10T03:20:28.887Z,17.13
2018-06-10T03:22:58.295Z,17.18
2018-06-10T03:25:27.731Z,17.25
2018-06-10T03:27:56.902Z,17.28
2018-06-10T03:30:26.056Z,17.26
2018-06-10T03:32:55.387Z,17.40
2018-06-10T03:35:24.579Z,17.35
2018-06-10T03:37:53.742Z,17.36
2018-06-10T03:40:23.623Z,17.38
2018-06-10T03:42:52.802Z,17.54
2018-06-10T03:45:21.955Z,17.56
2018-06-10T03:47:51.739Z,17.67
2018-06-10T03:50:20.909Z,17.63
2018-06-10T03:52:50.106Z,17.67
2018-06-10T03:55:20.082Z,17.68
2018-06-10T03:57:49.426Z,17.69
2018-06-10T04:00:18.806Z,17.70
2018-06-10T04:02:48.291Z,17.67
2018-06-10T04:05:17.740Z,17.72
2018-06-10T04:07:46.923Z,17.85
2018-06-10T04:10:16.454Z,17.99
2018-06-10T04:12:45.882Z,18.05
2018-06-10T04:15:15.050Z,18.12
2018-06-10T04:17:44.467Z,18.35
2018-06-10T04:20:13.953Z,18.40
2018-06-10T04:22:43.226Z,18.52
2018-06-10T04:25:12.466Z,18.48
2018-06-10T04:27:41.647Z,18.63
2018-06-10T04:30:11.755Z,18.77
2018-06-10T04:32:42.118Z,18.85
2018-06-10T04:35:11.275Z,18.90
2018-06-10T04:37:40.454Z,19.13
2018-06-10T04:40:09.618Z,19.28
2018-06-10T04:42:39.038Z,19.25
2018-06-10T04:45:08.470Z,19.36
2018-06-10T04:47:37.981Z,19.33
2018-06-10T04:50:07.134Z,19.41
2018-06-10T04:52:36.347Z,19.53
2018-06-10T04:55:05.663Z,19.58
2018-06-10T04:57:34.830Z,19.61
2018-06-10T05:00:04.022Z,19.67
2018-06-10T05:02:33.238Z,19.51
2018-06-10T05:05:02.407Z,19.43
2018-06-10T05:07:31.593Z,19.52
2018-06-10T05:10:00.750Z,19.41
2018-06-10T05:12:29.995Z,19.47
2018-06-10T05:14:59.376Z,19.50
2018-06-10T05:17:28.552Z,19.63
2018-06-10T05:19:57.738Z,19.95
2018-06-10T05:22:26.884Z,19.90
2018-06-10T05:24:56.070Z,20.35
2018-06-10T05:27:25.466Z,20.57
2018-06-10T05:29:55.162Z,20.53
2018-06-10T05:32:24.339Z,20.78
2018-06-10T05:34:53.505Z,20.86
2018-06-10T05:37:22.646Z,20.88
2018-06-10T05:39:51.810Z,20.73
2018-06-10T05:42:20.995Z,20.70
2018-06-10T05:44:50.446Z,20.99
2018-06-10T05:47:19.603Z,20.98
2018-06-10T05:49:49.943Z,21.21
2018-06-10T05:52:19.506Z,21.25
2018-06-10T05:54:48.702Z,21.29
2018-06-10T05:57:17.871Z,21.40
2018-06-10T05:59:47.049Z,21.23
2018-06-10T06:02:16.570Z,21.47
2018-06-10T06:04:45.766Z,21.94
2018-06-10T06:07:14.947Z,21.98
2018-06-10T06:09:44.115Z,21.72
2018-06-10T06:12:13.287Z,22.33
2018-06-10T06:14:42.778Z,22.22
2018-06-10T06:17:11.952Z,22.23
2018-06-10T06:19:41.126Z,21.66
2018-06-10T06:22:11.210Z,21.91
2018-06-10T06:24:40.395Z,22.43
2018-06-10T06:27:09.571Z,23.37
2018-06-10T06:29:38.987Z,24.48
2018-06-10T06:32:08.135Z,25.22
2018-06-10T06:34:37.595Z,26.10
2018-06-10T06:37:06.904Z,25.74
2018-06-10T06:39:36.078Z,26.59
2018-06-10T06:42:05.253Z,27.02
2018-06-10T06:44:34.432Z,25.91
2018-06-10T06:47:04.161Z,25.74
2018-06-10T06:49:33.338Z,25.84
2018-06-10T06:52:03.607Z,25.63
2018-06-10T06:54:32.778Z,26.30
2018-06-10T06:57:01.927Z,26.87
2018-06-10T06:59:31.095Z,27.82
2018-06-10T07:02:00.270Z,28.17
2018-06-10T07:04:29.447Z,28.26
2018-06-10T07:06:58.620Z,28.65
2018-06-10T07:09:28.063Z,29.25
2018-06-10T07:11:57.641Z,29.31
2018-06-10T07:14:26.757Z,29.69
2018-06-10T07:16:56.086Z,28.35
2018-06-10T07:19:25.566Z,27.93
2018-06-10T07:21:54.730Z,28.79
2018-06-10T07:24:23.906Z,29.44
2018-06-10T07:26:53.067Z,28.96
2018-06-10T07:29:22.235Z,28.92
2018-06-10T07:31:51.386Z,29.19
2018-06-10T07:34:20.566Z,30.34
2018-06-10T07:36:49.743Z,30.55
2018-06-10T07:39:18.903Z,30.62
2018-06-10T07:41:48.063Z,30.28
2018-06-10T07:44:17.246Z,30.07
2018-06-10T07:46:46.439Z,31.94
2018-06-10T07:49:15.611Z,30.94
2018-06-10T07:51:44.786Z,31.12
2018-06-10T07:54:13.964Z,32.59
2018-06-10T07:56:43.130Z,32.37
2018-06-10T07:59:12.317Z,32.66
2018-06-10T08:01:41.490Z,32.67
2018-06-10T08:04:10.649Z,33.07
2018-06-10T08:06:40.055Z,33.39
2018-06-10T08:09:09.231Z,31.88
2018-06-10T08:11:38.406Z,31.33
2018-06-10T08:14:07.598Z,29.98
2018-06-10T08:16:36.750Z,28.09
2018-06-10T08:19:05.922Z,26.74
2018-06-10T08:21:35.084Z,29.95
2018-06-10T08:24:04.611Z,30.89
2018-06-10T08:26:34.724Z,31.82
2018-06-10T08:29:03.888Z,33.13
2018-06-10T08:31:33.042Z,32.92
2018-06-10T08:34:02.446Z,33.45
2018-06-10T08:36:31.639Z,35.14
2018-06-10T08:39:01.651Z,35.33
2018-06-10T08:41:30.826Z,32.46
2018-06-10T08:44:00.078Z,32.95
2018-06-10T08:46:29.187Z,33.28
2018-06-10T08:48:58.359Z,34.04
2018-06-10T08:51:27.507Z,35.29
2018-06-10T08:53:56.691Z,36.25
2018-06-10T08:56:25.852Z,35.95
2018-06-10T08:58:55.035Z,36.31
2018-06-10T09:01:24.202Z,36.56
2018-06-10T09:03:53.527Z,36.39
2018-06-10T09:06:23.079Z,35.54
2018-06-10T09:08:52.291Z,37.01
2018-06-10T09:11:21.443Z,36.65
2018-06-10T09:13:50.614Z,37.42
2018-06-10T09:16:20.270Z,37.16
2018-06-10T09:18:49.990Z,37.68
2018-06-10T09:21:19.158Z,36.53
2018-06-10T09:23:48.310Z,37.95
2018-06-10T09:26:17.482Z,39.55
2018-06-10T09:28:46.710Z,39.20
2018-06-10T09:31:16.079Z,38.45
2018-06-10T09:33:45.354Z,38.48
2018-06-10T09:36:14.533Z,38.71
2018-06-10T09:38:44.050Z,37.23
2018-06-10T09:41:13.246Z,39.18
2018-06-10T09:43:42.407Z,39.37
2018-06-10T09:46:11.919Z,39.11
2018-06-10T09:48:41.083Z,38.94
2018-06-10T09:51:10.267Z,38.05
2018-06-10T09:53:39.426Z,38.28
2018-06-10T09:56:08.626Z,38.29
2018-06-10T09:58:37.808Z,39.64
2018-06-10T10:01:08.151Z,40.18
2018-06-10T10:03:37.302Z,38.94
2018-06-10T10:06:06.487Z,37.21
2018-06-10T10:08:35.645Z,36.27
2018-06-10T10:11:05.078Z,36.67
2018-06-10T10:13:34.238Z,36.33
2018-06-10T10:16:03.403Z,37.42
2018-06-10T10:18:32.562Z,37.33
2018-06-10T10:21:01.787Z,36.24
2018-06-10T10:23:30.937Z,38.13
2018-06-10T10:26:00.110Z,36.26
2018-06-10T10:28:29.258Z,33.32
2018-06-10T10:30:58.454Z,34.04
2018-06-10T10:33:27.594Z,35.53
2018-06-10T10:35:56.879Z,34.64
2018-06-10T10:38:26.052Z,35.65
2018-06-10T10:40:55.443Z,34.09
2018-06-10T10:43:24.602Z,34.41
2018-06-10T10:45:54.138Z,34.00
2018-06-10T10:48:23.966Z,35.03
2018-06-10T10:50:53.151Z,37.26
2018-06-10T10:53:22.330Z,38.65
2018-06-10T10:55:51.523Z,39.12
2018-06-10T10:58:20.814Z,37.40
2018-06-10T11:00:49.987Z,36.61
2018-06-10T11:03:19.224Z,37.91
2018-06-10T11:05:48.411Z,36.36
2018-06-10T11:08:17.625Z,34.87
2018-06-10T11:10:46.874Z,34.40
2018-06-10T11:13:16.114Z,33.51
2018-06-10T11:15:45.604Z,34.18
2018-06-10T11:18:15.118Z,35.90
2018-06-10T11:20:44.527Z,36.99
2018-06-10T11:23:13.674Z,37.86
2018-06-10T11:25:42.854Z,37.67
2018-06-10T11:28:12.010Z,38.14
2018-06-10T11:30:41.674Z,38.31
2018-06-10T11:33:10.811Z,38.12
2018-06-10T11:35:40.003Z,37.04
2018-06-10T11:38:09.154Z,34.55
2018-06-10T11:40:38.347Z,35.18
2018-06-10T11:43:07.711Z,37.17
2018-06-10T11:45:36.911Z,38.79
2018-06-10T11:48:06.062Z,38.49
2018-06-10T11:50:35.246Z,37.46
2018-06-10T11:53:04.574Z,36.59
2018-06-10T11:55:34.011Z,34.51
2018-06-10T11:58:03.188Z,32.78
2018-06-10T12:00:32.343Z,31.87
2018-06-10T12:03:01.583Z,33.16
2018-06-10T12:23:24.195Z,34.50
2018-06-10T12:25:53.363Z,34.23
2018-06-10T12:28:22.530Z,34.33
2018-06-10T12:30:51.775Z,36.24
2018-06-10T12:33:20.942Z,37.45
2018-06-10T12:35:50.128Z,38.52
2018-06-10T12:38:19.279Z,38.77
2018-06-10T12:40:48.802Z,39.40
2018-06-10T12:43:17.962Z,40.84
2018-06-10T12:45:47.299Z,40.50
2018-06-10T12:48:17.266Z,38.09
2018-06-10T12:50:46.783Z,38.08
2018-06-10T12:53:16.263Z,34.52
2018-06-10T12:55:45.567Z,32.15
2018-06-10T12:58:14.819Z,32.21
2018-06-10T13:00:43.992Z,35.66
2018-06-10T13:03:13.154Z,36.90
2018-06-10T13:05:42.602Z,36.17
2018-06-10T13:08:11.755Z,34.24
2018-06-10T13:10:41.266Z,33.48
2018-06-10T13:13:11.212Z,34.70
2018-06-10T13:15:40.406Z,36.86
2018-06-10T13:18:09.982Z,37.96
2018-06-10T13:20:39.163Z,38.15
2018-06-10T13:23:08.360Z,38.38
2018-06-10T13:25:37.530Z,37.93
2018-06-10T13:28:06.698Z,36.75
2018-06-10T13:30:35.868Z,38.38
2018-06-10T13:33:05.083Z,37.41
2018-06-10T13:35:34.246Z,38.32
2018-06-10T13:38:03.426Z,39.14
2018-06-10T13:40:32.618Z,38.94
2018-06-10T13:43:02.155Z,38.67
2018-06-10T13:45:31.302Z,37.78
2018-06-10T13:48:00.803Z,37.69
2018-06-10T13:50:30.107Z,38.37
2018-06-10T13:52:59.318Z,38.61
2018-06-10T13:55:28.687Z,38.96
2018-06-10T13:57:57.864Z,38.55
2018-06-10T14:00:27.019Z,38.22
2018-06-10T14:02:56.195Z,36.99
2018-06-10T14:05:25.347Z,35.31
2018-06-10T14:07:54.534Z,33.90
2018-06-10T14:10:23.784Z,33.40
2018-06-10T14:12:52.942Z,33.02
2018-06-10T14:15:22.836Z,34.30
2018-06-10T14:17:52.021Z,34.53
2018-06-10T14:20:21.320Z,34.40
2018-06-10T14:22:50.498Z,33.77
2018-06-10T14:25:19.663Z,34.48
2018-06-10T14:27:48.822Z,34.67
2018-06-10T14:30:18.015Z,34.90
2018-06-10T14:32:47.139Z,34.14
2018-06-10T14:35:16.278Z,34.89
2018-06-10T14:37:45.882Z,34.96
2018-06-10T14:40:15.639Z,34.92
2018-06-10T14:42:44.827Z,36.08
2018-06-10T14:45:14.310Z,36.29
2018-06-10T14:47:43.709Z,35.43
2018-06-10T14:50:12.863Z,33.92
2018-06-10T14:52:42.046Z,33.86
2018-06-10T14:55:11.307Z,33.34
2018-06-10T14:57:40.794Z,33.67
2018-06-10T15:00:09.933Z,33.38
2018-06-10T15:02:39.338Z,32.63
2018-06-10T15:05:08.493Z,32.31
2018-06-10T15:07:38.264Z,31.54
2018-06-10T15:10:07.418Z,30.90
2018-06-10T15:12:36.848Z,30.28
2018-06-10T15:15:06.044Z,30.19
2018-06-10T15:17:35.371Z,30.01
2018-06-10T15:20:04.692Z,29.99
2018-06-10T15:22:33.871Z,29.88
2018-06-10T15:25:03.044Z,29.55
2018-06-10T15:27:32.225Z,29.54
2018-06-10T15:30:01.394Z,29.21
2018-06-10T15:32:30.568Z,29.21
2018-06-10T15:34:59.855Z,28.87
2018-06-10T15:37:29.264Z,28.52
2018-06-10T15:39:59.183Z,28.59
2018-06-10T15:42:28.356Z,28.52
2018-06-10T15:44:57.514Z,27.86
2018-06-10T15:47:26.867Z,27.68
2018-06-10T15:49:56.101Z,27.55
2018-06-10T15:52:25.231Z,27.33
2018-06-10T15:54:54.382Z,26.97
2018-06-10T15:57:23.918Z,26.53
2018-06-10T15:59:53.067Z,26.10
2018-06-10T16:02:22.420Z,25.87
2018-06-10T16:04:52.072Z,25.71
2018-06-10T16:07:21.291Z,25.31
2018-06-10T16:09:50.454Z,24.95
2018-06-10T16:12:19.935Z,24.51
2018-06-10T16:14:49.139Z,23.87
2018-06-10T16:17:18.384Z,23.80
2018-06-10T16:19:47.853Z,24.03
2018-06-10T16:22:17.154Z,23.63
2018-06-10T16:24:46.314Z,23.55
2018-06-10T16:27:15.501Z,23.60
2018-06-10T16:29:44.694Z,23.37
2018-06-10T16:32:13.910Z,23.12
2018-06-10T16:34:43.091Z,23.01
2018-06-10T16:37:12.274Z,22.87
2018-06-10T16:39:42.887Z,22.42
2018-06-10T16:42:12.019Z,22.15
2018-06-10T16:44:41.211Z,21.74
2018-06-10T16:47:10.430Z,21.56
2018-06-10T16:49:39.594Z,21.41
2018-06-10T16:52:08.779Z,21.48
2018-06-10T16:54:38.006Z,21.39
2018-06-10T16:57:07.385Z,21.79
2018-06-10T16:59:36.583Z,21.81
2018-06-10T17:02:05.794Z,21.88
2018-06-10T17:04:34.994Z,21.89
2018-06-10T17:07:04.330Z,22.05
2018-06-10T17:09:33.531Z,22.06
2018-06-10T17:12:02.939Z,22.32
2018-06-10T17:14:32.102Z,22.65
2018-06-10T17:17:01.275Z,22.82
2018-06-10T17:19:30.478Z,23.19
2018-06-10T17:21:59.957Z,23.53
2018-06-10T17:24:29.288Z,23.85
2018-06-10T17:26:59.835Z,24.11
2018-06-10T17:29:29.030Z,24.46
2018-06-10T17:31:58.220Z,24.99
2018-06-10T17:34:27.415Z,24.83
2018-06-10T17:36:56.999Z,25.02
2018-06-10T17:39:26.215Z,24.77
2018-06-10T17:41:55.396Z,24.53
2018-06-10T17:44:24.620Z,24.33
2018-06-10T17:46:54.007Z,24.07
2018-06-10T17:49:23.204Z,23.86
2018-06-10T17:51:52.392Z,23.80
2018-06-10T17:54:22.018Z,23.54
2018-06-10T17:56:51.228Z,23.51
2018-06-10T17:59:20.423Z,23.16
2018-06-10T18:01:49.587Z,23.21
2018-06-10T18:04:19.004Z,23.28
2018-06-10T18:06:48.511Z,22.91
2018-06-10T18:09:17.792Z,22.87
2018-06-10T18:11:46.981Z,22.68
2018-06-10T18:14:16.463Z,22.47
2018-06-10T18:16:45.639Z,22.41
2018-06-10T18:19:14.847Z,22.26
2018-06-10T18:21:44.027Z,22.05
2018-06-10T18:24:13.326Z,21.84
2018-06-10T18:26:42.498Z,21.89
2018-06-10T18:29:11.703Z,21.94
2018-06-10T18:31:40.876Z,21.95
2018-06-10T18:34:10.286Z,21.83
2018-06-10T18:36:39.939Z,21.70
2018-06-10T18:39:09.470Z,21.74
2018-06-10T18:41:38.709Z,21.69
2018-06-10T18:44:07.922Z,21.64
2018-06-10T18:46:37.442Z,21.56
2018-06-10T18:49:07.347Z,21.41
2018-06-10T18:51:37.046Z,21.34
2018-06-10T18:54:06.467Z,21.24
2018-06-10T18:56:35.657Z,21.24
2018-06-10T18:59:04.862Z,21.22
2018-06-10T19:01:34.034Z,21.20
2018-06-10T19:04:03.646Z,21.15
2018-06-10T19:06:33.291Z,20.93
2018-06-10T19:09:02.503Z,21.00
2018-06-10T19:11:31.682Z,20.86
2018-06-10T19:14:00.886Z,20.96
2018-06-10T19:16:30.068Z,20.81
2018-06-10T19:18:59.281Z,20.79
2018-06-10T19:21:28.574Z,20.84
2018-06-10T19:23:58.070Z,20.74
2018-06-10T19:26:27.260Z,20.70
2018-06-10T19:28:56.485Z,20.62
2018-06-10T19:31:25.712Z,20.71
2018-06-10T19:33:54.991Z,20.72
2018-06-10T19:36:24.119Z,20.74
2018-06-10T19:38:53.363Z,20.70
2018-06-10T19:41:22.527Z,20.69
2018-06-10T19:43:51.718Z,20.77
2018-06-10T19:46:21.040Z,20.56
2018-06-10T19:48:50.214Z,20.46
2018-06-10T19:51:19.535Z,20.53
2018-06-10T19:53:49.015Z,20.51
2018-06-10T19:56:18.238Z,20.53
2018-06-10T19:58:47.412Z,20.56
2018-06-10T20:01:16.610Z,20.50
2018-06-10T20:03:45.795Z,20.60
2018-06-10T20:06:15.008Z,20.61
2018-06-10T20:08:44.167Z,20.59
2018-06-10T20:11:13.392Z,20.53
2018-06-10T20:13:42.566Z,20.50
2018-06-10T20:16:11.990Z,20.40
2018-06-10T20:18:41.358Z,20.39
2018-06-10T20:21:10.567Z,20.36
2018-06-10T20:23:39.751Z,20.25
2018-06-10T20:26:09.031Z,20.20
2018-06-10T20:28:38.203Z,20.26
2018-06-10T20:31:07.523Z,20.28
2018-06-10T20:33:37.019Z,20.32
2018-06-10T20:36:06.527Z,20.34
2018-06-10T20:38:35.864Z,20.33
2018-06-10T20:41:05.082Z,20.26
2018-06-10T20:43:34.274Z,20.25
2018-06-10T20:46:03.527Z,20.38
2018-06-10T20:48:32.776Z,20.33
2018-06-10T20:51:02.051Z,20.27
2018-06-10T20:53:31.938Z,20.27
2018-06-10T20:56:01.141Z,20.24
2018-06-10T20:58:30.335Z,20.29
2018-06-10T21:00:59.550Z,20.11
2018-06-10T21:03:29.043Z,20.07
2018-06-10T21:05:58.458Z,20.13
2018-06-10T21:08:28.544Z,20.10
2018-06-10T21:10:58.829Z,20.10
2018-06-10T21:13:28.008Z,20.03
2018-06-10T21:15:57.352Z,19.96
2018-06-10T21:18:26.631Z,20.01
2018-06-10T21:20:56.075Z,19.89
2018-06-10T21:23:25.295Z,20.02
2018-06-10T21:25:54.502Z,19.99
2018-06-10T21:28:23.691Z,19.95
2018-06-10T21:30:53.195Z,19.79
2018-06-10T21:33:22.402Z,19.87
2018-06-10T21:35:52.375Z,19.92
2018-06-10T21:38:21.565Z,19.92
2018-06-10T21:40:51.060Z,19.79
2018-06-10T21:43:20.410Z,19.68
2018-06-10T21:45:49.590Z,19.75
2018-06-10T21:48:19.422Z,19.76
2018-06-10T21:50:48.666Z,19.77
2018-06-10T21:53:18.287Z,19.74
2018-06-10T21:55:48.479Z,19.59
2018-06-10T21:58:17.769Z,19.60
2018-06-10T22:00:46.921Z,19.64
2018-06-10T22:03:16.139Z,19.62
2018-06-10T22:05:45.314Z,19.66
2018-06-10T22:08:14.527Z,19.61
2018-06-10T22:10:43.711Z,19.60
2018-06-10T22:13:13.176Z,19.60
2018-06-10T22:15:42.357Z,19.52
2018-06-10T22:18:11.714Z,19.62
2018-06-10T22:20:41.183Z,19.50
2018-06-10T22:23:10.382Z,19.38
2018-06-10T22:25:39.658Z,19.38
2018-06-10T22:28:08.850Z,19.36
2018-06-10T22:30:38.027Z,19.48
2018-06-10T22:33:07.739Z,19.47
2018-06-10T22:35:36.931Z,19.43
2018-06-10T22:38:06.186Z,19.48
2018-06-10T22:40:35.702Z,19.53
2018-06-10T22:43:04.935Z,19.46
2018-06-10T22:45:34.110Z,19.53
2018-06-10T22:48:03.318Z,19.58
2018-06-10T22:50:32.490Z,19.48
2018-06-10T22:55:13.174Z,19.52
2018-06-10T22:57:42.369Z,19.43
2018-06-10T23:00:11.598Z,19.45
2018-06-10T23:02:40.626Z,19.40
2018-06-10T23:05:10.282Z,19.45
2018-06-10T23:07:39.663Z,19.43
2018-06-10T23:10:08.855Z,19.46
2018-06-10T23:12:38.047Z,19.45
2018-06-10T23:15:07.259Z,19.47
2018-06-10T23:17:36.432Z,19.56
2018-06-10T23:20:05.775Z,19.56
2018-06-10T23:22:34.955Z,19.57
2018-06-10T23:25:04.187Z,19.46
2018-06-10T23:27:33.351Z,19.44
2018-06-10T23:30:02.607Z,19.39
2018-06-10T23:32:31.998Z,19.43
2018-06-10T23:35:01.258Z,19.31
2018-06-10T23:37:30.549Z,19.26
2018-06-10T23:39:59.778Z,19.21
2018-06-10T23:42:29.098Z,19.39
2018-06-10T23:44:58.310Z,19.56
2018-06-10T23:47:27.484Z,19.62
2018-06-10T23:49:56.742Z,19.64
2018-06-10T23:52:26.248Z,19.70
2018-06-10T23:54:55.663Z,19.70
2018-06-10T23:57:24.859Z,19.75
2018-06-10T23:59:54.282Z,19.74
